createdAt,value
2022-08-07T00:02:44.318Z,101075.70
2022-08-07T00:06:52.521Z,101083.58
2022-08-07T00:11:00.190Z,101091.11
2022-08-07T00:15:09.304Z,101093.61
2022-08-07T00:19:21.585Z,101096.23
2022-08-07T00:23:36.846Z,101096.08
2022-08-07T00:27:52.411Z,101101.88
2022-08-07T00:32:03.691Z,101101.64
2022-08-07T00:36:14.173Z,101099.75
2022-08-07T00:40:36.265Z,101096.90
2022-08-07T00:44:48.015Z,101095.38
2022-08-07T00:48:55.611Z,101097.63
2022-08-07T00:53:03.526Z,101096.90
2022-08-07T00:57:19.093Z,101098.31
2022-08-07T01:01:26.690Z,101096.14
2022-08-07T01:05:36.586Z,101093.27
2022-08-07T01:10:06.945Z,101095.29
2022-08-07T01:14:16.597Z,101097.06
2022-08-07T01:18:24.790Z,101095.77
2022-08-07T01:22:33.193Z,101095.52
2022-08-07T01:26:41.056Z,101100.02
2022-08-07T01:30:51.384Z,101095.15
2022-08-07T01:35:00.261Z,101097.65
2022-08-07T01:39:10.256Z,101096.59
2022-08-07T01:43:17.983Z,101098.55
2022-08-07T01:48:18.623Z,101102.63
2022-08-07T01:52:04.144Z,101104.36
2022-08-07T01:56:16.104Z,101103.80
2022-08-07T02:00:28.984Z,101098.52
2022-08-07T02:04:56.377Z,101105.34
2022-08-07T02:09:09.230Z,101110.63
2022-08-07T02:13:19.531Z,101111.18
2022-08-07T02:17:36.092Z,101113.41
2022-08-07T02:21:55.802Z,101117.90
2022-08-07T02:26:30.835Z,101117.23
2022-08-07T02:30:34.015Z,101112.90
2022-08-07T02:34:51.094Z,101121.27
2022-08-07T02:39:00.266Z,101127.48
2022-08-07T02:43:08.486Z,101130.24
2022-08-07T02:47:19.447Z,101131.09
2022-08-07T02:51:41.959Z,101129.59
2022-08-07T02:56:03.933Z,101131.17
2022-08-07T03:00:15.735Z,101135.55
2022-08-07T03:04:26.857Z,101138.44
2022-08-07T03:08:34.462Z,101138.70
2022-08-07T03:12:44.221Z,101135.54
2022-08-07T03:16:54.326Z,101129.19
2022-08-07T03:21:02.382Z,101128.63
2022-08-07T03:25:12.454Z,101128.03
2022-08-07T03:29:24.324Z,101125.51
2022-08-07T03:33:40.185Z,101127.38
2022-08-07T03:37:53.803Z,101125.73
2022-08-07T03:42:02.075Z,101131.35
2022-08-07T03:46:18.569Z,101136.15
2022-08-07T03:50:28.731Z,101137.61
2022-08-07T03:54:54.835Z,101136.38
2022-08-07T03:59:09.418Z,101133.06
2022-08-07T04:03:20.099Z,101137.16
2022-08-07T04:07:41.679Z,101134.95
2022-08-07T04:12:24.441Z,101133.64
2022-08-07T04:16:19.893Z,101137.39
2022-08-07T04:20:39.370Z,101142.41
2022-08-07T04:25:03.090Z,101143.05
2022-08-07T04:29:16.346Z,101138.37
2022-08-07T04:33:24.148Z,101134.75
2022-08-07T04:38:00.786Z,101133.21
2022-08-07T04:42:05.289Z,101142.35
2022-08-07T04:46:20.078Z,101148.11
2022-08-07T04:50:39.261Z,101147.46
2022-08-07T04:54:58.233Z,101150.44
2022-08-07T05:00:08.023Z,101152.38
2022-08-07T05:04:00.283Z,101154.80
2022-08-07T05:08:20.237Z,101160.27
2022-08-07T05:12:54.402Z,101161.84
2022-08-07T05:17:05.903Z,101164.98
2022-08-07T05:22:00.564Z,101165.58
2022-08-07T05:26:10.709Z,101171.61
2022-08-07T05:30:32.695Z,101172.93
2022-08-07T05:34:43.422Z,101168.24
2022-08-07T05:39:01.418Z,101162.89
2022-08-07T05:43:17.160Z,101160.48
2022-08-07T05:47:38.483Z,101165.68
2022-08-07T05:51:54.145Z,101170.52
2022-08-07T05:56:05.916Z,101167.94
2022-08-07T06:00:16.074Z,101166.91
2022-08-07T06:04:29.827Z,101173.80
2022-08-07T06:08:42.426Z,101168.56
2022-08-07T06:12:52.077Z,101173.39
2022-08-07T06:16:59.795Z,101174.28
2022-08-07T06:22:14.292Z,101172.63
2022-08-07T06:25:38.441Z,101175.33
2022-08-07T06:29:47.176Z,101170.81
2022-08-07T06:33:58.598Z,101176.48
2022-08-07T06:38:06.419Z,101178.54
2022-08-07T06:42:34.776Z,101182.73
2022-08-07T06:46:43.421Z,101186.33
2022-08-07T06:51:08.149Z,101184.02
2022-08-07T06:55:33.046Z,101187.56
2022-08-07T07:00:14.271Z,101181.11
2022-08-07T07:04:27.578Z,101181.08
2022-08-07T07:08:46.816Z,101173.73
2022-08-07T07:12:57.532Z,101174.65
2022-08-07T07:17:08.243Z,101169.61
2022-08-07T07:21:27.169Z,101169.76
2022-08-07T07:26:35.283Z,101168.61
2022-08-07T07:30:26.596Z,101162.13
2022-08-07T07:34:43.061Z,101162.00
2022-08-07T07:38:51.817Z,101158.56
2022-08-07T07:43:11.579Z,101160.42
2022-08-07T07:47:23.995Z,101157.65
2022-08-07T07:51:32.325Z,101159.06
2022-08-07T07:56:01.515Z,101150.24
2022-08-07T08:00:11.570Z,101152.25
2022-08-07T08:04:27.460Z,101153.63
2022-08-07T08:08:39.425Z,101148.89
2022-08-07T08:12:52.676Z,101149.09
2022-08-07T08:17:56.737Z,101147.96
2022-08-07T08:22:03.393Z,101149.77
2022-08-07T08:26:30.509Z,101145.80
2022-08-07T08:30:42.596Z,101144.08
2022-08-07T08:35:00.682Z,101139.77
2022-08-07T08:39:09.110Z,101139.30
2022-08-07T08:43:22.114Z,101135.33
2022-08-07T08:47:57.569Z,101138.63
2022-08-07T08:52:14.176Z,101139.45
2022-08-07T08:56:28.061Z,101140.48
2022-08-07T09:00:42.654Z,101142.85
2022-08-07T09:05:02.322Z,101139.59
2022-08-07T09:09:30.255Z,101138.25
2022-08-07T09:13:49.338Z,101135.29
2022-08-07T09:18:16.926Z,101128.55
2022-08-07T09:24:32.198Z,101124.88
2022-08-07T09:27:24.878Z,101120.33
2022-08-07T09:31:48.459Z,101122.87
2022-08-07T09:36:03.838Z,101116.80
2022-08-07T09:40:22.294Z,101111.77
2022-08-07T09:47:19.957Z,101114.04
2022-08-07T09:50:02.605Z,101107.60
2022-08-07T09:54:02.041Z,101102.92
2022-08-07T09:58:32.279Z,101098.39
2022-08-07T10:04:06.927Z,101098.98
2022-08-07T10:07:53.562Z,101092.85
2022-08-07T10:12:21.812Z,101087.58
2022-08-07T10:16:45.139Z,101076.77
2022-08-07T10:21:19.513Z,101080.61
2022-08-07T10:25:45.696Z,101071.62
2022-08-07T10:30:12.068Z,101061.79
2022-08-07T10:34:32.681Z,101053.67
2022-08-07T10:38:51.897Z,101051.20
2022-08-07T10:43:07.402Z,101047.89
2022-08-07T10:47:26.959Z,101047.40
2022-08-07T10:52:13.426Z,101045.02
2022-08-07T10:56:32.493Z,101041.44
2022-08-07T11:00:50.259Z,101037.73
2022-08-07T11:05:13.491Z,101029.13
2022-08-07T11:10:10.185Z,101024.74
2022-08-07T11:14:57.126Z,101029.96
2022-08-07T11:18:31.104Z,101019.71
2022-08-07T11:22:46.310Z,101015.95
2022-08-07T11:26:57.358Z,101015.92
2022-08-07T11:31:12.286Z,101015.23
2022-08-07T11:35:25.051Z,101009.28
2022-08-07T11:40:00.006Z,101003.06
2022-08-07T11:44:18.606Z,100994.96
2022-08-07T11:48:38.148Z,101000.27
2022-08-07T11:52:57.710Z,101000.42
2022-08-07T11:57:15.926Z,100998.53
2022-08-07T12:01:58.805Z,100991.08
2022-08-07T12:06:37.482Z,100988.32
2022-08-07T12:11:08.347Z,100990.19
2022-08-07T12:15:46.247Z,100986.16
2022-08-07T12:20:04.138Z,100979.71
2022-08-07T12:24:38.537Z,100980.64
2022-08-07T12:28:53.840Z,100972.45
2022-08-07T12:33:18.624Z,100972.68
2022-08-07T12:37:28.459Z,100960.29
2022-08-07T12:41:56.747Z,100955.98
2022-08-07T12:46:32.321Z,100954.61
2022-08-07T12:50:49.599Z,100954.67
2022-08-07T12:55:05.085Z,100946.72
2022-08-07T12:59:20.575Z,100945.15
2022-08-07T13:04:05.224Z,100940.67
2022-08-07T13:08:38.769Z,100930.91
2022-08-07T13:13:04.338Z,100929.20
2022-08-07T13:17:18.372Z,100924.42
2022-08-07T13:21:51.178Z,100917.96
2022-08-07T13:26:03.669Z,100914.23
2022-08-07T13:30:19.517Z,100912.56
2022-08-07T13:34:48.611Z,100909.91
2022-08-07T13:39:12.976Z,100909.81
2022-08-07T13:43:34.240Z,100900.98
2022-08-07T13:48:05.355Z,100892.27
2022-08-07T13:52:30.551Z,100885.36
2022-08-07T13:56:52.081Z,100878.47
2022-08-07T14:01:12.894Z,100868.58
2022-08-07T14:05:25.362Z,100863.70
2022-08-07T14:10:01.361Z,100854.97
2022-08-07T14:14:16.335Z,100857.02
2022-08-07T14:18:29.336Z,100853.47
2022-08-07T14:22:38.542Z,100853.50
2022-08-07T14:26:51.324Z,100847.88
2022-08-07T14:30:59.982Z,100841.32
2022-08-07T14:35:11.548Z,100838.54
2022-08-07T14:40:15.985Z,100835.20
2022-08-07T14:43:57.180Z,100838.50
2022-08-07T14:48:10.575Z,100835.31
2022-08-07T14:52:28.994Z,100837.99
2022-08-07T14:56:42.576Z,100833.13
2022-08-07T15:00:53.603Z,100831.81
2022-08-07T15:05:02.055Z,100823.24
2022-08-07T15:13:43.027Z,100822.09
2022-08-07T15:17:58.921Z,100822.40
2022-08-07T15:22:23.275Z,100815.88
2022-08-07T15:26:42.699Z,100813.65
2022-08-07T15:30:59.572Z,100807.34
2022-08-07T15:35:18.385Z,100809.45
2022-08-07T15:39:59.186Z,100808.44
2022-08-07T15:44:10.939Z,100806.58
2022-08-07T15:52:52.832Z,100803.86
2022-08-07T15:57:39.365Z,100802.40
2022-08-07T16:01:45.041Z,100792.35
2022-08-07T16:06:10.725Z,100790.64
2022-08-07T16:10:20.636Z,100785.02
2022-08-07T16:14:42.344Z,100790.47
2022-08-07T16:19:09.671Z,100783.98
2022-08-07T16:23:53.562Z,100781.95
2022-08-07T16:28:01.596Z,100786.41
2022-08-07T16:32:33.126Z,100783.60
2022-08-07T16:37:02.886Z,100786.61
2022-08-07T16:41:48.632Z,100783.11
2022-08-07T16:47:07.860Z,100783.39
2022-08-07T16:51:13.432Z,100777.73
2022-08-07T16:55:47.752Z,100777.36
2022-08-07T17:00:06.946Z,100778.98
2022-08-07T17:04:24.365Z,100775.48
2022-08-07T17:09:09.767Z,100777.52
2022-08-07T17:14:18.570Z,100778.23
2022-08-07T17:18:18.645Z,100784.16
2022-08-07T17:22:37.770Z,100782.70
2022-08-07T17:26:51.796Z,100782.41
2022-08-07T17:31:16.387Z,100780.07
2022-08-07T17:35:51.268Z,100785.55
2022-08-07T17:40:03.386Z,100782.55
2022-08-07T17:44:33.678Z,100787.98
2022-08-07T17:49:09.239Z,100786.67
2022-08-07T17:54:01.609Z,100786.66
2022-08-07T17:58:02.010Z,100788.23
2022-08-07T18:02:16.466Z,100790.53
2022-08-07T18:06:38.197Z,100794.02
2022-08-07T18:12:07.797Z,100795.84
2022-08-07T18:15:32.657Z,100797.92
2022-08-07T18:21:07.142Z,100800.14
2022-08-07T18:24:33.909Z,100806.98
2022-08-07T18:28:58.646Z,100808.74
2022-08-07T18:33:39.254Z,100809.30
2022-08-07T18:38:55.821Z,100817.52
2022-08-07T18:43:05.723Z,100817.62
2022-08-07T18:47:22.589Z,100825.58
2022-08-07T18:52:35.545Z,100828.08
2022-08-07T18:56:15.477Z,100828.89
2022-08-07T19:00:33.290Z,100833.07
2022-08-07T19:04:54.802Z,100839.52
2022-08-07T19:09:57.217Z,100844.73
2022-08-07T19:13:56.068Z,100848.40
2022-08-07T19:18:34.421Z,100854.95
2022-08-07T19:22:48.439Z,100851.05
2022-08-07T19:29:02.923Z,100849.96
2022-08-07T19:31:58.678Z,100856.64
2022-08-07T19:36:00.191Z,100856.92
2022-08-07T19:40:11.353Z,100856.98
2022-08-07T19:44:31.487Z,100856.29
2022-08-07T19:48:42.807Z,100860.31
2022-08-07T19:52:59.016Z,100858.84
2022-08-07T19:58:02.494Z,100852.61
2022-08-07T20:01:52.750Z,100855.57
2022-08-07T20:06:04.797Z,100863.61
2022-08-07T20:10:37.371Z,100868.23
2022-08-07T20:14:53.618Z,100870.83
2022-08-07T20:19:05.118Z,100868.23
2022-08-07T20:23:33.045Z,100867.14
2022-08-07T20:27:46.334Z,100870.30
2022-08-07T20:31:56.815Z,100871.48
2022-08-07T20:36:07.957Z,100872.86
2022-08-07T20:40:32.143Z,100870.40
2022-08-07T20:44:45.420Z,100872.44
2022-08-07T20:49:59.231Z,100871.95
2022-08-07T20:54:02.881Z,100874.60
2022-08-07T20:58:02.864Z,100866.27
2022-08-07T21:07:04.345Z,100864.53
2022-08-07T21:11:25.686Z,100869.48
2022-08-07T21:16:00.415Z,100868.48
2022-08-07T21:20:26.492Z,100865.48
2022-08-07T21:24:48.068Z,100868.52
2022-08-07T21:28:59.430Z,100876.20
2022-08-07T21:33:12.660Z,100877.67
2022-08-07T21:37:25.658Z,100877.81
2022-08-07T21:41:52.385Z,100879.89
2022-08-07T21:46:24.350Z,100883.82
2022-08-07T21:50:45.291Z,100882.77
2022-08-07T21:55:00.252Z,100889.02
2022-08-07T21:59:11.600Z,100893.19
2022-08-07T22:03:31.644Z,100895.48
2022-08-07T22:07:58.151Z,100895.75
2022-08-07T22:12:12.861Z,100897.42
2022-08-07T22:16:45.002Z,100897.30
2022-08-07T22:21:11.839Z,100902.98
2022-08-07T22:25:26.579Z,100902.84
2022-08-07T22:29:48.188Z,100899.86
2022-08-07T22:34:13.318Z,100897.11
2022-08-07T22:38:27.175Z,100896.08
2022-08-07T22:42:36.385Z,100895.22
2022-08-07T22:47:08.654Z,100892.67
2022-08-07T22:51:49.296Z,100893.62
2022-08-07T22:56:03.965Z,100890.11
2022-08-07T23:00:18.653Z,100890.33
2022-08-07T23:04:58.111Z,100891.39
2022-08-07T23:10:00.868Z,100889.91
2022-08-07T23:14:16.045Z,100887.60
2022-08-07T23:18:42.127Z,100888.23
2022-08-07T23:23:03.357Z,100885.45
2022-08-07T23:28:20.628Z,100884.29
2022-08-07T23:34:23.753Z,100881.25
2022-08-07T23:37:19.986Z,100879.33
2022-08-07T23:41:33.674Z,100884.93
2022-08-07T23:46:03.526Z,100884.10
2022-08-07T23:50:30.668Z,100885.70
2022-08-07T23:54:52.886Z,100883.35
